createdAt,value
2022-12-13T00:01:30.280Z,100333.72
2022-12-13T00:03:59.590Z,100333.03
2022-12-13T00:06:27.821Z,100339.34
2022-12-13T00:08:55.693Z,100342.31
2022-12-13T00:11:23.366Z,100339.16
2022-12-13T00:13:51.260Z,100331.56
2022-12-13T00:16:22.341Z,100336.63
2022-12-13T00:18:54.038Z,100333.25
2022-12-13T00:21:22.878Z,100334.50
2022-12-13T00:23:50.959Z,100327.63
2022-12-13T00:26:20.338Z,100330.97
2022-12-13T00:28:49.424Z,100332.19
2022-12-13T00:31:53.398Z,100324.34
2022-12-13T00:34:06.198Z,100325.78
2022-12-13T00:36:33.873Z,100313.22
2022-12-13T00:39:01.538Z,100312.88
2022-12-13T00:41:31.628Z,100316.78
2022-12-13T00:43:59.845Z,100317.75
2022-12-13T00:46:28.238Z,100312.75
2022-12-13T00:48:57.377Z,100315.59
2022-12-13T00:51:41.446Z,100309.94
2022-12-13T00:54:10.039Z,100306.03
2022-12-13T00:56:38.253Z,100309.94
2022-12-13T00:59:05.894Z,100305.41
2022-12-13T01:01:37.021Z,100310.75
2022-12-13T01:04:06.923Z,100309.31
2022-12-13T01:06:38.625Z,100304.94
2022-12-13T01:09:07.577Z,100307.19
2022-12-13T01:11:35.194Z,100306.13
2022-12-13T01:14:02.709Z,100307.44
2022-12-13T01:16:30.490Z,100304.38
2022-12-13T01:18:58.241Z,100308.50
2022-12-13T01:21:26.579Z,100304.47
2022-12-13T01:23:57.325Z,100304.84
2022-12-13T01:26:25.018Z,100310.28
2022-12-13T01:28:53.566Z,100312.06
2022-12-13T01:31:21.662Z,100308.47
2022-12-13T01:33:49.758Z,100316.56
2022-12-13T01:36:19.522Z,100313.25
2022-12-13T01:38:58.403Z,100306.72
2022-12-13T01:41:29.211Z,100307.56
2022-12-13T01:44:00.911Z,100306.03
2022-12-13T01:46:28.867Z,100298.69
2022-12-13T01:49:01.380Z,100304.94
2022-12-13T01:51:33.822Z,100303.03
2022-12-13T01:54:03.544Z,100304.56
2022-12-13T01:56:36.446Z,100304.69
2022-12-13T01:59:06.114Z,100301.00
2022-12-13T02:01:33.814Z,100298.19
2022-12-13T02:04:02.248Z,100307.44
2022-12-13T02:06:35.139Z,100301.84
2022-12-13T02:09:05.697Z,100299.81
2022-12-13T02:11:34.053Z,100307.72
2022-12-13T02:14:01.755Z,100303.00
2022-12-13T02:16:41.741Z,100310.34
2022-12-13T02:19:46.804Z,100306.31
2022-12-13T02:22:31.085Z,100307.28
2022-12-13T02:25:10.108Z,100307.06
2022-12-13T02:27:52.131Z,100303.50
2022-12-13T02:30:35.834Z,100303.72
2022-12-13T02:33:13.845Z,100316.75
2022-12-13T02:35:54.038Z,100313.66
2022-12-13T02:38:26.983Z,100310.94
2022-12-13T02:40:57.540Z,100309.84
2022-12-13T02:43:33.822Z,100305.56
2022-12-13T02:46:04.234Z,100313.03
2022-12-13T02:48:36.345Z,100315.84
2022-12-13T02:51:04.623Z,100307.19
2022-12-13T02:53:33.818Z,100306.19
2022-12-13T02:56:01.803Z,100303.38
2022-12-13T02:58:32.994Z,100307.13
2022-12-13T03:01:27.854Z,100306.34
2022-12-13T03:04:03.087Z,100309.75
2022-12-13T03:06:39.235Z,100306.06
2022-12-13T03:09:20.433Z,100300.69
2022-12-13T03:12:17.234Z,100306.41
2022-12-13T03:14:51.142Z,100317.88
2022-12-13T03:17:21.583Z,100305.28
2022-12-13T03:19:49.074Z,100309.09
2022-12-13T03:22:17.089Z,100304.50
2022-12-13T03:24:44.833Z,100303.09
2022-12-13T03:27:13.554Z,100298.81
2022-12-13T03:29:41.225Z,100292.41
2022-12-13T03:32:08.758Z,100301.13
2022-12-13T03:34:43.676Z,100303.44
2022-12-13T03:37:12.661Z,100308.09
2022-12-13T03:39:40.473Z,100315.75
2022-12-13T03:42:10.033Z,100307.88
2022-12-13T03:44:37.543Z,100301.63
2022-12-13T03:47:05.417Z,100309.34
2022-12-13T03:49:35.408Z,100298.28
2022-12-13T03:52:05.231Z,100307.97
2022-12-13T03:54:32.745Z,100313.00
2022-12-13T03:57:00.538Z,100309.81
2022-12-13T03:59:28.427Z,100304.38
2022-12-13T04:01:56.041Z,100295.34
2022-12-13T04:04:24.554Z,100293.19
2022-12-13T04:06:52.165Z,100288.63
2022-12-13T04:09:21.073Z,100293.69
2022-12-13T04:12:06.352Z,100287.38
2022-12-13T04:14:35.004Z,100293.72
2022-12-13T04:17:03.429Z,100281.69
2022-12-13T04:19:30.967Z,100287.03
2022-12-13T04:21:58.590Z,100289.13
2022-12-13T04:24:31.767Z,100289.78
2022-12-13T04:27:00.691Z,100289.09
2022-12-13T04:29:34.609Z,100289.00
2022-12-13T04:32:04.004Z,100280.56
2022-12-13T04:34:36.760Z,100288.69
2022-12-13T04:37:05.927Z,100290.59
2022-12-13T04:39:34.961Z,100292.75
2022-12-13T04:42:02.773Z,100299.09
2022-12-13T04:44:33.847Z,100279.56
2022-12-13T04:47:04.693Z,100288.69
2022-12-13T04:49:32.422Z,100283.06
2022-12-13T04:52:01.577Z,100287.25
2022-12-13T04:54:36.168Z,100281.03
2022-12-13T04:57:07.055Z,100280.59
2022-12-13T04:59:35.058Z,100283.72
2022-12-13T05:02:03.153Z,100279.97
2022-12-13T05:04:33.249Z,100293.19
2022-12-13T05:07:01.349Z,100286.44
2022-12-13T05:09:29.127Z,100276.47
2022-12-13T05:12:01.690Z,100274.63
2022-12-13T05:14:30.999Z,100274.81
2022-12-13T05:16:59.076Z,100276.59
2022-12-13T05:19:30.539Z,100271.72
2022-12-13T05:22:01.195Z,100270.25
2022-12-13T05:24:30.197Z,100273.16
2022-12-13T05:26:58.304Z,100276.59
2022-12-13T05:29:27.468Z,100277.72
2022-12-13T05:31:56.651Z,100274.50
2022-12-13T05:34:24.318Z,100279.09
2022-12-13T05:36:51.778Z,100280.81
2022-12-13T05:39:29.295Z,100269.25
2022-12-13T05:42:01.372Z,100269.16
2022-12-13T05:44:30.597Z,100269.91
2022-12-13T05:47:02.226Z,100276.16
2022-12-13T05:49:30.539Z,100273.25
2022-12-13T05:51:58.302Z,100276.69
2022-12-13T05:54:26.034Z,100278.44
2022-12-13T05:56:53.674Z,100279.75
2022-12-13T05:59:21.163Z,100277.84
2022-12-13T06:01:48.643Z,100272.09
2022-12-13T06:04:23.019Z,100283.00
2022-12-13T06:06:51.379Z,100284.25
2022-12-13T06:09:19.381Z,100282.00
2022-12-13T06:11:47.733Z,100285.69
2022-12-13T06:14:21.944Z,100280.78
2022-12-13T06:16:52.889Z,100281.44
2022-12-13T06:19:22.455Z,100283.63
2022-12-13T06:21:50.356Z,100286.19
2022-12-13T06:24:19.549Z,100291.59
2022-12-13T06:26:47.097Z,100287.63
2022-12-13T06:29:23.167Z,100280.22
2022-12-13T06:32:01.791Z,100286.97
2022-12-13T06:34:33.449Z,100278.44
2022-12-13T06:37:01.285Z,100269.03
2022-12-13T06:39:33.012Z,100275.63
2022-12-13T06:42:01.429Z,100272.47
2022-12-13T06:44:29.395Z,100278.28
2022-12-13T06:47:11.532Z,100277.44
2022-12-13T06:49:43.673Z,100280.31
2022-12-13T06:52:13.597Z,100278.22
2022-12-13T06:54:41.364Z,100278.44
2022-12-13T06:57:10.069Z,100276.28
2022-12-13T06:59:37.739Z,100265.88
2022-12-13T07:02:05.390Z,100270.06
2022-12-13T07:04:33.649Z,100272.88
2022-12-13T07:07:02.632Z,100263.44
2022-12-13T07:09:30.774Z,100259.19
2022-12-13T07:11:58.366Z,100262.63
2022-12-13T07:14:26.202Z,100260.22
2022-12-13T07:16:59.598Z,100260.03
2022-12-13T07:19:34.903Z,100261.28
2022-12-13T07:22:05.651Z,100257.34
2022-12-13T07:24:33.502Z,100257.34
2022-12-13T07:27:01.038Z,100255.56
2022-12-13T07:29:28.554Z,100254.59
2022-12-13T07:32:00.961Z,100264.22
2022-12-13T07:34:30.389Z,100272.72
2022-12-13T07:36:58.230Z,100271.56
2022-12-13T07:39:27.724Z,100272.44
2022-12-13T07:41:56.272Z,100267.94
2022-12-13T07:44:24.492Z,100272.94
2022-12-13T07:46:52.232Z,100267.53
2022-12-13T07:49:19.998Z,100273.03
2022-12-13T07:51:48.098Z,100271.91
2022-12-13T07:54:15.824Z,100272.72
2022-12-13T07:56:45.859Z,100272.53
2022-12-13T07:59:14.237Z,100268.25
2022-12-13T08:01:42.012Z,100257.22
2022-12-13T08:04:10.182Z,100262.91
2022-12-13T08:06:39.517Z,100269.56
2022-12-13T08:09:07.384Z,100276.19
2022-12-13T08:11:35.014Z,100274.72
2022-12-13T08:14:03.876Z,100272.00
2022-12-13T08:16:31.489Z,100281.28
2022-12-13T08:19:01.039Z,100279.44
2022-12-13T08:24:23.128Z,100276.69
2022-12-13T08:26:50.609Z,100275.63
2022-12-13T08:29:23.177Z,100276.63
2022-12-13T08:32:01.878Z,100278.44
2022-12-13T08:34:29.890Z,100281.44
2022-12-13T08:37:01.524Z,100278.03
2022-12-13T08:39:34.659Z,100278.97
2022-12-13T08:42:16.370Z,100266.22
2022-12-13T08:44:50.096Z,100262.19
2022-12-13T08:47:22.694Z,100269.06
2022-12-13T08:49:52.990Z,100272.53
2022-12-13T08:52:22.210Z,100270.53
2022-12-13T08:54:50.080Z,100276.38
2022-12-13T08:57:18.959Z,100281.00
2022-12-13T08:59:48.285Z,100285.03
2022-12-13T09:02:16.147Z,100283.13
2022-12-13T09:04:43.986Z,100276.25
2022-12-13T09:07:11.714Z,100274.50
2022-12-13T09:09:40.876Z,100286.00
2022-12-13T09:12:10.255Z,100283.03
2022-12-13T09:14:45.748Z,100291.13
2022-12-13T09:17:24.890Z,100296.66
2022-12-13T09:19:57.929Z,100293.44
2022-12-13T09:22:32.731Z,100296.53
2022-12-13T09:25:03.263Z,100293.09
2022-12-13T09:27:39.519Z,100295.19
2022-12-13T09:30:12.166Z,100299.94
2022-12-13T09:32:41.959Z,100297.91
2022-12-13T09:35:10.218Z,100306.09
2022-12-13T09:37:44.111Z,100298.50
2022-12-13T09:40:25.703Z,100302.28
2022-12-13T09:43:12.262Z,100305.38
2022-12-13T09:45:45.447Z,100310.13
2022-12-13T09:48:22.915Z,100318.16
2022-12-13T09:50:58.227Z,100311.97
2022-12-13T09:53:26.168Z,100311.78
2022-12-13T09:56:11.065Z,100307.47
2022-12-13T09:58:39.221Z,100318.03
2022-12-13T10:01:07.299Z,100315.19
2022-12-13T10:03:36.519Z,100312.19
2022-12-13T10:06:14.830Z,100305.06
2022-12-13T10:08:58.381Z,100302.63
2022-12-13T10:11:32.461Z,100299.84
2022-12-13T10:14:03.840Z,100302.22
2022-12-13T10:16:39.002Z,100295.34
2022-12-13T10:19:28.782Z,100286.28
2022-12-13T10:22:01.395Z,100285.00
2022-12-13T10:24:36.706Z,100275.91
2022-12-13T10:27:12.544Z,100276.25
2022-12-13T10:30:02.199Z,100269.91
2022-12-13T10:32:29.954Z,100277.88
2022-12-13T10:35:23.050Z,100273.59
2022-12-13T10:37:51.281Z,100269.91
2022-12-13T10:40:33.405Z,100265.25
2022-12-13T10:43:09.543Z,100261.56
2022-12-13T10:45:37.397Z,100257.69
2022-12-13T10:48:05.568Z,100256.47
2022-12-13T10:50:34.500Z,100253.56
2022-12-13T10:53:02.244Z,100243.53
2022-12-13T10:55:31.916Z,100247.25
2022-12-13T10:58:03.861Z,100235.84
2022-12-13T11:00:41.485Z,100234.34
2022-12-13T11:03:12.844Z,100233.38
2022-12-13T11:05:42.244Z,100241.66
2022-12-13T11:08:14.266Z,100238.06
2022-12-13T11:10:42.787Z,100227.31
2022-12-13T11:13:24.107Z,100223.19
2022-12-13T11:15:55.686Z,100223.34
2022-12-13T11:18:24.995Z,100218.66
2022-12-13T11:20:57.504Z,100211.06
2022-12-13T11:23:31.175Z,100218.66
2022-12-13T11:26:02.158Z,100221.00
2022-12-13T11:28:42.165Z,100204.03
2022-12-13T11:31:16.768Z,100210.09
2022-12-13T11:33:53.520Z,100205.84
2022-12-13T11:36:31.454Z,100201.28
2022-12-13T11:39:08.221Z,100201.94
2022-12-13T11:41:37.930Z,100204.72
2022-12-13T11:44:11.535Z,100191.03
2022-12-13T11:46:41.854Z,100175.88
2022-12-13T11:49:17.823Z,100178.88
2022-12-13T11:51:48.819Z,100168.91
2022-12-13T11:54:24.040Z,100171.38
2022-12-13T11:56:59.401Z,100167.03
2022-12-13T11:59:39.845Z,100166.59
2022-12-13T12:02:16.380Z,100156.38
2022-12-13T12:04:51.553Z,100162.19
2022-12-13T12:07:33.518Z,100169.38
2022-12-13T12:10:08.291Z,100170.53
2022-12-13T12:12:39.415Z,100166.09
2022-12-13T12:15:27.783Z,100163.59
2022-12-13T12:17:55.683Z,100164.09
2022-12-13T12:20:28.599Z,100164.81
2022-12-13T12:23:03.691Z,100163.81
2022-12-13T12:25:42.441Z,100168.63
2022-12-13T12:28:16.918Z,100165.81
2022-12-13T12:30:51.530Z,100165.59
2022-12-13T12:33:35.627Z,100158.59
2022-12-13T12:36:30.346Z,100150.25
2022-12-13T12:39:15.103Z,100154.47
2022-12-13T12:41:52.324Z,100149.69
2022-12-13T12:44:30.639Z,100153.94
2022-12-13T12:47:32.630Z,100150.19
2022-12-13T12:50:05.941Z,100149.56
2022-12-13T12:52:42.844Z,100140.44
2022-12-13T12:55:18.827Z,100151.69
2022-12-13T12:57:54.203Z,100148.84
2022-12-13T13:00:22.846Z,100148.00
2022-12-13T13:03:01.505Z,100146.50
2022-12-13T13:05:34.096Z,100142.16
2022-12-13T13:08:05.580Z,100156.88
2022-12-13T13:10:35.037Z,100160.66
2022-12-13T13:13:12.918Z,100157.19
2022-12-13T13:15:57.894Z,100147.66
2022-12-13T13:18:51.708Z,100146.63
2022-12-13T13:21:40.955Z,100143.97
2022-12-13T13:24:23.290Z,100138.97
2022-12-13T13:26:54.718Z,100143.69
2022-12-13T13:29:31.089Z,100151.88
2022-12-13T13:32:02.155Z,100153.81
2022-12-13T13:34:32.385Z,100150.22
2022-12-13T13:37:00.902Z,100153.63
2022-12-13T13:39:54.422Z,100150.50
2022-12-13T13:42:24.678Z,100160.00
2022-12-13T13:45:22.448Z,100161.97
2022-12-13T13:48:14.420Z,100158.44
2022-12-13T13:51:15.410Z,100153.94
2022-12-13T13:54:15.537Z,100159.19
2022-12-13T13:57:13.597Z,100154.50
2022-12-13T14:00:39.866Z,100149.00
2022-12-13T14:03:45.833Z,100150.00
2022-12-13T14:06:31.066Z,100143.94
2022-12-13T14:09:39.606Z,100148.41
2022-12-13T14:12:51.719Z,100141.19
2022-12-13T14:16:04.166Z,100141.78
2022-12-13T14:19:12.973Z,100145.41
2022-12-13T14:21:47.749Z,100142.28
2022-12-13T14:24:23.363Z,100152.00
2022-12-13T14:27:00.748Z,100159.84
2022-12-13T14:29:31.403Z,100154.09
2022-12-13T14:32:00.726Z,100157.41
2022-12-13T14:34:30.527Z,100157.13
2022-12-13T14:36:59.905Z,100143.47
2022-12-13T14:39:29.355Z,100146.69
2022-12-13T14:41:58.801Z,100144.84
2022-12-13T14:44:29.725Z,100139.63
2022-12-13T14:46:58.813Z,100143.88
2022-12-13T14:49:31.044Z,100138.09
2022-12-13T14:52:02.954Z,100138.63
2022-12-13T14:54:33.553Z,100133.78
2022-12-13T14:57:02.493Z,100131.72
2022-12-13T14:59:30.709Z,100132.78
2022-12-13T15:02:02.478Z,100123.69
2022-12-13T15:04:37.708Z,100123.28
2022-12-13T15:07:07.830Z,100117.31
2022-12-13T15:09:40.996Z,100114.03
2022-12-13T15:12:24.061Z,100116.50
2022-12-13T15:14:58.683Z,100103.53
2022-12-13T15:17:32.566Z,100101.28
2022-12-13T15:20:03.044Z,100107.09
2022-12-13T15:22:30.813Z,100108.84
2022-12-13T15:24:58.629Z,100099.31
2022-12-13T15:27:27.762Z,100101.94
2022-12-13T15:29:56.035Z,100099.00
2022-12-13T15:32:24.235Z,100096.75
2022-12-13T15:34:53.177Z,100090.66
2022-12-13T15:37:29.006Z,100094.31
2022-12-13T15:40:00.547Z,100090.44
2022-12-13T15:42:32.661Z,100078.00
2022-12-13T15:45:03.029Z,100091.63
2022-12-13T15:47:30.624Z,100092.16
2022-12-13T15:50:00.033Z,100082.13
2022-12-13T15:52:44.233Z,100078.63
2022-12-13T15:55:28.921Z,100077.69
2022-12-13T15:57:58.117Z,100073.66
2022-12-13T16:00:29.573Z,100079.16
2022-12-13T16:03:09.031Z,100076.56
2022-12-13T16:05:39.522Z,100070.03
2022-12-13T16:08:16.267Z,100077.78
2022-12-13T16:10:47.777Z,100075.81
2022-12-13T16:13:26.079Z,100083.97
2022-12-13T16:15:59.826Z,100077.00
2022-12-13T16:18:44.794Z,100072.53
2022-12-13T16:21:15.391Z,100065.91
2022-12-13T16:23:48.422Z,100069.25
2022-12-13T16:26:22.104Z,100065.38
2022-12-13T16:28:49.595Z,100064.00
2022-12-13T16:31:18.715Z,100066.81
2022-12-13T16:33:47.197Z,100065.97
2022-12-13T16:36:14.950Z,100073.56
2022-12-13T16:38:46.062Z,100063.97
2022-12-13T16:41:14.616Z,100062.16
2022-12-13T16:43:49.720Z,100056.53
2022-12-13T16:47:17.975Z,100057.16
2022-12-13T16:49:16.971Z,100058.81
2022-12-13T16:51:48.248Z,100055.53
2022-12-13T16:54:18.511Z,100041.41
2022-12-13T16:56:46.356Z,100035.16
2022-12-13T16:59:15.091Z,100047.41
2022-12-13T17:01:42.939Z,100051.38
2022-12-13T17:04:17.865Z,100059.88
2022-12-13T17:06:47.571Z,100058.25
2022-12-13T17:09:15.167Z,100058.03
2022-12-13T17:11:44.434Z,100051.69
2022-12-13T17:14:12.043Z,100056.22
2022-12-13T17:16:39.692Z,100059.88
2022-12-13T17:19:07.250Z,100054.41
2022-12-13T17:21:35.751Z,100060.06
2022-12-13T17:24:04.085Z,100054.41
2022-12-13T17:26:31.821Z,100050.13
2022-12-13T17:29:00.737Z,100046.78
2022-12-13T17:31:34.982Z,100038.69
2022-12-13T17:34:03.844Z,100036.91
2022-12-13T17:36:32.339Z,100030.53
2022-12-13T17:39:00.606Z,100027.81
2022-12-13T17:41:28.092Z,100035.06
2022-12-13T17:44:01.457Z,100028.22
2022-12-13T17:46:29.250Z,100032.28
2022-12-13T17:48:57.936Z,100038.94
2022-12-13T17:51:25.492Z,100035.91
2022-12-13T17:53:53.223Z,100031.78
2022-12-13T17:56:21.125Z,100035.06
2022-12-13T17:58:48.687Z,100030.97
2022-12-13T18:01:19.622Z,100031.94
2022-12-13T18:03:48.801Z,100033.50
2022-12-13T18:06:16.823Z,100034.00
2022-12-13T18:08:47.514Z,100038.81
2022-12-13T18:11:32.793Z,100022.78
2022-12-13T18:14:01.518Z,100024.78
2022-12-13T18:16:37.427Z,100023.25
2022-12-13T18:19:07.618Z,100016.53
2022-12-13T18:21:36.902Z,100012.97
2022-12-13T18:24:06.306Z,100001.53
2022-12-13T18:26:34.975Z,99997.81
2022-12-13T18:29:02.825Z,100000.44
2022-12-13T18:31:32.397Z,100002.69
2022-12-13T18:34:00.400Z,99998.25
2022-12-13T18:36:28.040Z,100001.31
2022-12-13T18:38:56.826Z,99994.59
2022-12-13T18:41:28.280Z,99994.44
2022-12-13T18:43:59.173Z,100004.06
2022-12-13T18:46:33.354Z,99998.56
2022-12-13T18:49:01.093Z,99991.13
2022-12-13T18:51:29.178Z,99994.19
2022-12-13T18:53:57.059Z,99978.50
2022-12-13T18:56:25.784Z,99978.19
2022-12-13T18:58:53.774Z,99983.28
2022-12-13T19:01:23.017Z,99977.25
2022-12-13T19:03:53.626Z,99979.03
2022-12-13T19:06:22.971Z,99975.31
2022-12-13T19:08:51.763Z,99976.69
2022-12-13T19:11:19.634Z,99972.59
2022-12-13T19:13:47.542Z,99982.47
2022-12-13T19:16:17.074Z,99978.34
2022-12-13T19:18:44.892Z,99977.09
2022-12-13T19:21:16.181Z,99973.38
2022-12-13T19:23:45.515Z,99973.69
2022-12-13T19:26:16.414Z,99977.41
2022-12-13T19:28:45.124Z,99970.09
2022-12-13T19:31:14.177Z,99974.75
2022-12-13T19:33:42.367Z,99975.16
2022-12-13T19:36:10.748Z,99977.66
2022-12-13T19:38:41.731Z,99980.28
2022-12-13T19:41:10.112Z,99976.56
2022-12-13T19:43:38.141Z,99976.81
2022-12-13T19:46:06.103Z,99979.44
2022-12-13T19:48:34.297Z,99963.47
2022-12-13T19:51:02.711Z,99968.53
2022-12-13T19:53:31.317Z,99966.59
2022-12-13T19:56:00.386Z,99967.69
2022-12-13T19:58:28.354Z,99960.81
2022-12-13T20:01:02.574Z,99963.81
2022-12-13T20:03:32.655Z,99958.84
2022-12-13T20:06:01.776Z,99962.44
2022-12-13T20:08:30.796Z,99956.88
2022-12-13T20:11:01.327Z,99947.00
2022-12-13T20:13:29.811Z,99948.88
2022-12-13T20:15:57.750Z,99946.28
2022-12-13T20:18:26.419Z,99943.13
2022-12-13T20:21:17.727Z,99942.81
2022-12-13T20:23:48.907Z,99948.19
2022-12-13T20:26:20.159Z,99938.97
2022-12-13T20:28:48.435Z,99929.91
2022-12-13T20:31:18.495Z,99935.63
2022-12-13T20:33:47.369Z,99937.63
2022-12-13T20:36:25.911Z,99925.41
2022-12-13T20:38:55.736Z,99928.84
2022-12-13T20:41:26.108Z,99922.63
2022-12-13T20:44:08.160Z,99914.94
2022-12-13T20:46:36.439Z,99915.38
2022-12-13T20:49:05.937Z,99910.06
2022-12-13T20:51:34.832Z,99910.91
2022-12-13T20:54:02.691Z,99908.66
2022-12-13T20:56:34.272Z,99912.41
2022-12-13T20:59:02.128Z,99906.78
2022-12-13T21:01:31.271Z,99914.97
2022-12-13T21:04:01.155Z,99912.25
2022-12-13T21:06:29.008Z,99917.94
2022-12-13T21:09:02.613Z,99897.59
2022-12-13T21:11:33.417Z,99898.31
2022-12-13T21:14:08.193Z,99891.00
2022-12-13T21:16:40.089Z,99894.47
2022-12-13T21:19:08.577Z,99898.94
2022-12-13T21:21:36.233Z,99891.88
2022-12-13T21:24:04.290Z,99891.88
2022-12-13T21:26:36.014Z,99892.97
2022-12-13T21:29:06.551Z,99877.75
2022-12-13T21:31:35.041Z,99873.75
2022-12-13T21:34:03.306Z,99883.13
2022-12-13T21:36:32.434Z,99879.41
2022-12-13T21:39:01.217Z,99870.19
2022-12-13T21:41:29.192Z,99868.38
2022-12-13T21:44:01.814Z,99858.50
2022-12-13T21:46:55.143Z,99856.16
2022-12-13T21:49:18.167Z,99864.69
2022-12-13T21:51:48.224Z,99853.56
2022-12-13T21:54:16.811Z,99843.28
2022-12-13T21:57:01.829Z,99840.25
2022-12-13T21:59:31.617Z,99848.66
2022-12-13T22:02:14.541Z,99836.69
2022-12-13T22:04:43.703Z,99837.53
2022-12-13T22:07:12.967Z,99820.88
2022-12-13T22:09:40.864Z,99823.50
2022-12-13T22:12:10.324Z,99826.66
2022-12-13T22:14:39.662Z,99811.41
2022-12-13T22:17:07.388Z,99813.06
2022-12-13T22:19:35.159Z,99806.03
2022-12-13T22:22:02.768Z,99809.22
2022-12-13T22:24:30.571Z,99808.94
2022-12-13T22:26:58.350Z,99809.06
2022-12-13T22:29:26.228Z,99815.81
2022-12-13T22:31:55.406Z,99813.88
2022-12-13T22:34:22.977Z,99808.81
2022-12-13T22:36:51.888Z,99806.59
2022-12-13T22:39:21.518Z,99812.78
2022-12-13T22:41:50.235Z,99809.22
2022-12-13T22:44:20.341Z,99811.16
2022-12-13T22:46:48.486Z,99807.84
2022-12-13T22:49:17.722Z,99792.72
2022-12-13T22:51:45.365Z,99793.81
2022-12-13T22:54:13.164Z,99800.69
2022-12-13T22:56:40.702Z,99797.94
2022-12-13T22:59:09.013Z,99799.88
2022-12-13T23:01:39.007Z,99801.91
2022-12-13T23:04:07.473Z,99797.50
2022-12-13T23:06:39.001Z,99797.41
2022-12-13T23:09:07.889Z,99791.34
2022-12-13T23:11:53.791Z,99787.06
2022-12-13T23:14:26.069Z,99787.91
2022-12-13T23:16:53.616Z,99781.97
2022-12-13T23:22:13.021Z,99774.56
2022-12-13T23:24:40.940Z,99769.34
2022-12-13T23:27:08.542Z,99763.84
2022-12-13T23:29:36.262Z,99765.22
2022-12-13T23:32:03.912Z,99763.53
2022-12-13T23:34:32.401Z,99754.47
2022-12-13T23:36:59.971Z,99762.59
2022-12-13T23:39:29.131Z,99761.91
2022-12-13T23:41:57.761Z,99755.84
2022-12-13T23:44:25.491Z,99755.84
2022-12-13T23:46:53.030Z,99747.72
2022-12-13T23:49:20.578Z,99752.13
2022-12-13T23:51:48.214Z,99748.00
2022-12-13T23:54:19.189Z,99742.66
2022-12-13T23:56:48.649Z,99738.22
2022-12-13T23:59:16.354Z,99740.84
